createdAt,value
2022-12-12T00:01:04.727Z,17.63
2022-12-12T00:03:34.679Z,17.77
2022-12-12T00:06:04.949Z,18.65
2022-12-12T00:08:33.131Z,17.65
2022-12-12T00:11:01.303Z,18.30
2022-12-12T00:13:29.340Z,19.42
2022-12-12T00:15:57.349Z,18.90
2022-12-12T00:18:25.385Z,18.55
2022-12-12T00:20:55.729Z,18.90
2022-12-12T00:23:23.815Z,17.83
2022-12-12T00:25:56.247Z,17.63
2022-12-12T00:28:24.412Z,17.00
2022-12-12T00:30:52.658Z,17.65
2022-12-12T00:33:20.908Z,16.63
2022-12-12T00:35:51.620Z,17.25
2022-12-12T00:38:22.782Z,18.23
2022-12-12T00:40:51.392Z,16.80
2022-12-12T00:43:19.619Z,18.02
2022-12-12T00:45:47.614Z,17.65
2022-12-12T00:48:15.558Z,18.58
2022-12-12T00:50:44.540Z,18.80
2022-12-12T00:53:13.319Z,18.55
2022-12-12T00:55:42.710Z,17.23
2022-12-12T00:58:10.703Z,15.73
2022-12-12T01:00:41.701Z,16.27
2022-12-12T01:03:09.973Z,16.67
2022-12-12T01:05:38.001Z,17.67
2022-12-12T01:08:06.225Z,17.40
2022-12-12T01:10:34.472Z,17.33
2022-12-12T01:13:03.873Z,17.02
2022-12-12T01:15:32.010Z,16.45
2022-12-12T01:18:00.267Z,17.35
2022-12-12T01:20:29.620Z,16.95
2022-12-12T01:22:57.814Z,16.98
2022-12-12T01:25:25.849Z,18.15
2022-12-12T01:27:54.109Z,17.85
2022-12-12T01:30:24.140Z,17.48
2022-12-12T01:32:52.528Z,16.67
2022-12-12T01:35:20.756Z,16.42
2022-12-12T01:37:49.702Z,15.93
2022-12-12T01:40:20.063Z,16.02
2022-12-12T01:42:48.880Z,16.13
2022-12-12T01:45:54.183Z,16.63
2022-12-12T01:48:26.765Z,15.63
2022-12-12T01:50:55.970Z,14.30
2022-12-12T01:53:26.861Z,14.98
2022-12-12T01:55:56.009Z,16.63
2022-12-12T01:58:24.896Z,15.45
2022-12-12T02:00:52.991Z,14.95
2022-12-12T02:03:21.371Z,15.65
2022-12-12T02:05:57.404Z,16.33
2022-12-12T02:08:26.667Z,17.48
2022-12-12T02:10:54.891Z,16.63
2022-12-12T02:13:26.332Z,16.70
2022-12-12T02:16:01.480Z,16.27
2022-12-12T02:18:37.445Z,16.13
2022-12-12T02:21:16.529Z,15.13
2022-12-12T02:24:12.491Z,17.92
2022-12-12T02:27:05.229Z,15.05
2022-12-12T02:30:06.314Z,16.15
2022-12-12T02:32:59.047Z,14.93
2022-12-12T02:35:35.701Z,14.88
2022-12-12T02:38:12.374Z,15.02
2022-12-12T02:40:52.704Z,13.95
2022-12-12T02:43:27.057Z,15.00
2022-12-12T02:46:00.034Z,15.27
2022-12-12T02:48:36.382Z,14.73
2022-12-12T02:51:07.646Z,15.57
2022-12-12T02:53:35.760Z,15.30
2022-12-12T02:56:05.915Z,14.23
2022-12-12T02:58:35.744Z,15.10
2022-12-12T03:01:18.275Z,14.13
2022-12-12T03:04:13.645Z,13.38
2022-12-12T03:07:13.598Z,13.75
2022-12-12T03:09:55.875Z,12.40
2022-12-12T03:12:32.395Z,13.75
2022-12-12T03:15:05.081Z,12.68
2022-12-12T03:17:40.316Z,13.20
2022-12-12T03:20:16.641Z,13.65
2022-12-12T03:22:50.797Z,14.30
2022-12-12T03:25:25.272Z,13.30
2022-12-12T03:27:59.772Z,13.95
2022-12-12T03:30:31.052Z,15.00
2022-12-12T03:33:02.874Z,14.55
2022-12-12T03:35:37.431Z,13.93
2022-12-12T03:38:10.609Z,14.77
2022-12-12T03:40:45.462Z,14.82
2022-12-12T03:43:17.135Z,14.07
2022-12-12T03:45:52.529Z,13.73
2022-12-12T03:48:26.939Z,15.25
2022-12-12T03:50:59.413Z,14.38
2022-12-12T03:53:35.028Z,14.25
2022-12-12T03:56:06.730Z,14.32
2022-12-12T03:58:40.103Z,13.40
2022-12-12T04:01:12.753Z,14.07
2022-12-12T04:03:49.383Z,13.90
2022-12-12T04:06:30.622Z,14.05
2022-12-12T04:09:19.037Z,14.18
2022-12-12T04:12:21.045Z,13.30
2022-12-12T04:15:19.156Z,14.35
2022-12-12T04:17:58.871Z,14.80
2022-12-12T04:20:51.158Z,15.43
2022-12-12T04:23:30.667Z,15.43
2022-12-12T04:26:22.990Z,14.27
2022-12-12T04:28:58.338Z,14.88
2022-12-12T04:31:29.779Z,14.80
2022-12-12T04:34:04.459Z,15.38
2022-12-12T04:36:35.274Z,15.45
2022-12-12T04:39:06.664Z,14.35
2022-12-12T04:41:38.531Z,14.93
2022-12-12T04:44:10.742Z,15.32
2022-12-12T04:46:41.902Z,15.25
2022-12-12T04:49:16.324Z,14.68
2022-12-12T04:51:49.970Z,15.18
2022-12-12T04:54:25.653Z,15.05
2022-12-12T04:56:57.886Z,14.95
2022-12-12T04:59:26.285Z,16.15
2022-12-12T05:02:00.567Z,16.02
2022-12-12T05:04:36.257Z,16.30
2022-12-12T05:07:08.743Z,15.38
2022-12-12T05:09:39.247Z,16.00
2022-12-12T05:12:07.789Z,15.75
2022-12-12T05:14:36.414Z,15.55
2022-12-12T05:17:10.388Z,16.30
2022-12-12T05:22:06.256Z,14.82
2022-12-12T05:24:34.232Z,16.60
2022-12-12T05:27:03.857Z,16.42
2022-12-12T05:29:32.236Z,16.08
2022-12-12T05:32:00.319Z,16.65
2022-12-12T05:34:28.272Z,16.88
2022-12-12T05:36:56.959Z,14.95
2022-12-12T05:39:25.370Z,15.85
2022-12-12T05:41:53.355Z,15.88
2022-12-12T05:44:22.869Z,15.57
2022-12-12T05:46:50.901Z,16.83
2022-12-12T05:49:18.840Z,17.35
2022-12-12T05:51:46.927Z,16.95
2022-12-12T05:54:15.033Z,16.63
2022-12-12T05:56:43.224Z,16.95
2022-12-12T05:59:11.453Z,18.70
2022-12-12T06:01:41.311Z,18.67
2022-12-12T06:04:09.717Z,16.20
2022-12-12T06:06:38.036Z,15.77
2022-12-12T06:09:06.475Z,16.08
2022-12-12T06:11:34.629Z,16.33
2022-12-12T06:14:02.732Z,18.08
2022-12-12T06:16:31.006Z,16.77
2022-12-12T06:19:06.867Z,16.52
2022-12-12T06:21:35.230Z,17.08
2022-12-12T06:24:03.610Z,16.63
2022-12-12T06:26:31.971Z,17.63
2022-12-12T06:29:00.117Z,17.23
2022-12-12T06:31:28.227Z,16.50
2022-12-12T06:33:59.277Z,16.63
2022-12-12T06:36:28.831Z,15.88
2022-12-12T06:38:59.220Z,16.98
2022-12-12T06:41:30.617Z,16.77
2022-12-12T06:43:58.656Z,18.73
2022-12-12T06:46:29.475Z,17.95
2022-12-12T06:48:58.836Z,16.33
2022-12-12T06:51:32.325Z,16.95
2022-12-12T06:54:00.807Z,16.70
2022-12-12T06:56:29.197Z,16.75
2022-12-12T06:59:01.070Z,16.27
2022-12-12T07:01:29.403Z,16.08
2022-12-12T07:03:58.099Z,15.07
2022-12-12T07:06:26.477Z,16.45
2022-12-12T07:08:56.180Z,16.73
2022-12-12T07:11:26.957Z,16.30
2022-12-12T07:13:57.004Z,16.63
2022-12-12T07:16:25.290Z,16.95
2022-12-12T07:18:53.359Z,17.50
2022-12-12T07:21:21.992Z,16.80
2022-12-12T07:23:50.225Z,18.52
2022-12-12T07:26:23.179Z,20.20
2022-12-12T07:28:51.917Z,20.08
2022-12-12T07:31:24.599Z,18.83
2022-12-12T07:33:54.355Z,19.48
2022-12-12T07:36:22.452Z,20.40
2022-12-12T07:38:50.932Z,20.83
2022-12-12T07:41:21.531Z,19.05
2022-12-12T07:43:51.081Z,19.20
2022-12-12T07:46:23.198Z,19.58
2022-12-12T07:48:51.752Z,18.20
2022-12-12T07:51:20.738Z,17.83
2022-12-12T07:53:49.002Z,17.48
2022-12-12T07:56:19.259Z,16.80
2022-12-12T07:58:49.358Z,17.23
2022-12-12T08:01:19.789Z,17.73
2022-12-12T08:03:49.171Z,19.02
2022-12-12T08:06:20.307Z,17.40
2022-12-12T08:08:50.652Z,17.10
2022-12-12T08:11:22.436Z,17.35
2022-12-12T08:13:54.182Z,15.63
2022-12-12T08:16:23.998Z,17.02
2022-12-12T08:18:55.239Z,16.98
2022-12-12T08:21:26.198Z,17.73
2022-12-12T08:23:57.962Z,17.40
2022-12-12T08:26:27.280Z,17.30
2022-12-12T08:28:57.538Z,16.67
2022-12-12T08:31:26.562Z,18.77
2022-12-12T08:33:55.351Z,16.90
2022-12-12T08:36:25.207Z,15.82
2022-12-12T08:38:54.313Z,20.08
2022-12-12T08:41:23.355Z,18.23
2022-12-12T08:43:52.333Z,18.45
2022-12-12T08:46:24.126Z,18.45
2022-12-12T08:48:53.039Z,17.52
2022-12-12T08:51:22.337Z,19.10
2022-12-12T08:53:53.067Z,19.08
2022-12-12T08:56:24.149Z,15.98
2022-12-12T08:58:57.221Z,16.90
2022-12-12T09:01:29.210Z,16.88
2022-12-12T09:04:00.373Z,16.55
2022-12-12T09:06:32.411Z,17.98
2022-12-12T09:09:02.177Z,17.40
2022-12-12T09:11:30.912Z,17.27
2022-12-12T09:13:59.471Z,17.88
2022-12-12T09:16:30.191Z,18.65
2022-12-12T09:18:59.091Z,18.02
2022-12-12T09:21:28.792Z,17.88
2022-12-12T09:23:57.999Z,18.50
2022-12-12T09:26:26.624Z,18.27
2022-12-12T09:28:55.226Z,17.40
2022-12-12T09:31:23.460Z,17.63
2022-12-12T09:33:53.378Z,19.83
2022-12-12T09:36:21.535Z,17.88
2022-12-12T09:38:49.770Z,17.27
2022-12-12T09:41:20.644Z,18.85
2022-12-12T09:43:55.584Z,18.10
2022-12-12T09:46:33.632Z,17.10
2022-12-12T09:49:13.096Z,16.23
2022-12-12T09:51:43.618Z,17.70
2022-12-12T09:54:25.532Z,19.80
2022-12-12T09:57:03.451Z,18.17
2022-12-12T09:59:41.974Z,20.90
2022-12-12T10:02:38.165Z,18.35
2022-12-12T10:05:20.702Z,16.48
2022-12-12T10:07:58.927Z,17.80
2022-12-12T10:10:32.541Z,17.20
2022-12-12T10:13:03.110Z,18.15
2022-12-12T10:15:38.074Z,19.55
2022-12-12T10:18:09.874Z,18.40
2022-12-12T10:20:46.551Z,16.95
2022-12-12T10:23:22.613Z,20.70
2022-12-12T10:25:55.451Z,17.80
2022-12-12T10:28:26.655Z,17.63
2022-12-12T10:31:11.536Z,18.38
2022-12-12T10:33:52.711Z,19.73
2022-12-12T10:36:32.347Z,18.90
2022-12-12T10:39:14.628Z,20.95
2022-12-12T10:41:48.875Z,18.38
2022-12-12T10:44:29.897Z,17.58
2022-12-12T10:47:03.983Z,16.67
2022-12-12T10:49:32.769Z,18.15
2022-12-12T10:52:05.919Z,18.20
2022-12-12T10:54:43.200Z,16.92
2022-12-12T10:57:20.194Z,17.27
2022-12-12T10:59:50.841Z,16.75
2022-12-12T11:02:38.547Z,17.38
2022-12-12T11:05:16.576Z,16.58
2022-12-12T11:07:48.427Z,17.17
2022-12-12T11:10:27.973Z,16.45
2022-12-12T11:13:02.296Z,18.17
2022-12-12T11:15:39.869Z,15.25
2022-12-12T11:18:14.688Z,15.20
2022-12-12T11:20:47.155Z,15.38
2022-12-12T11:23:21.257Z,14.63
2022-12-12T11:25:57.603Z,14.85
2022-12-12T11:28:29.319Z,15.05
2022-12-12T11:30:58.801Z,13.80
2022-12-12T11:33:33.978Z,15.50
2022-12-12T11:36:04.156Z,15.90
2022-12-12T11:38:39.344Z,16.52
2022-12-12T11:41:09.947Z,16.30
2022-12-12T11:43:39.785Z,15.60
2022-12-12T11:46:16.846Z,15.35
2022-12-12T11:48:56.214Z,14.98
2022-12-12T11:51:37.590Z,16.45
2022-12-12T11:54:13.256Z,15.63
2022-12-12T11:56:52.209Z,15.45
2022-12-12T11:59:43.213Z,15.70
2022-12-12T12:02:34.162Z,14.05
2022-12-12T12:05:18.269Z,14.73
2022-12-12T12:07:56.334Z,15.18
2022-12-12T12:10:40.790Z,15.63
2022-12-12T12:13:21.356Z,14.15
2022-12-12T12:15:52.740Z,13.88
2022-12-12T12:18:35.251Z,12.88
2022-12-12T12:21:20.377Z,14.20
2022-12-12T12:23:57.192Z,14.57
2022-12-12T12:26:35.908Z,13.32
2022-12-12T12:29:30.568Z,14.85
2022-12-12T12:32:07.697Z,13.23
2022-12-12T12:34:49.457Z,14.35
2022-12-12T12:37:33.695Z,13.15
2022-12-12T12:42:51.847Z,12.02
2022-12-12T12:45:25.363Z,11.98
2022-12-12T12:47:58.930Z,12.65
2022-12-12T12:50:31.143Z,12.38
2022-12-12T12:53:05.176Z,14.10
2022-12-12T12:55:41.023Z,11.82
2022-12-12T12:58:19.609Z,12.25
2022-12-12T13:00:54.173Z,11.90
2022-12-12T13:03:28.584Z,12.85
2022-12-12T13:06:00.014Z,12.40
2022-12-12T13:08:33.868Z,11.93
2022-12-12T13:11:08.023Z,10.90
2022-12-12T13:13:41.315Z,11.73
2022-12-12T13:16:14.346Z,11.02
2022-12-12T13:18:45.520Z,11.23
2022-12-12T13:21:23.112Z,10.93
2022-12-12T13:23:57.686Z,12.52
2022-12-12T13:26:30.305Z,11.55
2022-12-12T13:29:05.304Z,12.57
2022-12-12T13:32:01.900Z,10.68
2022-12-12T13:34:31.710Z,10.35
2022-12-12T13:37:00.867Z,11.45
2022-12-12T13:39:31.368Z,12.10
2022-12-12T13:42:02.881Z,12.40
2022-12-12T13:44:39.141Z,11.57
2022-12-12T13:47:34.054Z,10.77
2022-12-12T13:50:07.543Z,11.20
2022-12-12T13:52:36.969Z,12.13
2022-12-12T13:55:24.782Z,11.07
2022-12-12T13:58:08.612Z,11.50
2022-12-12T14:00:39.093Z,10.57
2022-12-12T14:03:19.626Z,11.07
2022-12-12T14:05:50.367Z,11.80
2022-12-12T14:08:24.622Z,12.02
2022-12-12T14:10:59.825Z,10.60
2022-12-12T14:13:51.605Z,11.77
2022-12-12T14:16:25.891Z,12.30
2022-12-12T14:19:07.053Z,12.02
2022-12-12T14:21:49.907Z,12.48
2022-12-12T14:24:53.739Z,11.27
2022-12-12T14:28:01.584Z,11.23
2022-12-12T14:30:41.360Z,10.38
2022-12-12T14:33:31.384Z,11.13
2022-12-12T14:36:06.161Z,11.27
2022-12-12T14:38:42.455Z,11.38
2022-12-12T14:41:16.062Z,11.93
2022-12-12T14:44:35.685Z,11.60
2022-12-12T14:46:43.099Z,10.57
2022-12-12T14:49:16.958Z,11.85
2022-12-12T14:51:46.487Z,12.27
2022-12-12T14:54:17.360Z,11.38
2022-12-12T14:56:52.727Z,11.68
2022-12-12T14:59:24.457Z,10.73
2022-12-12T15:01:55.436Z,11.45
2022-12-12T15:04:29.047Z,11.82
2022-12-12T15:06:57.706Z,11.18
2022-12-12T15:09:29.779Z,11.73
2022-12-12T15:12:13.436Z,11.50
2022-12-12T15:14:52.144Z,12.07
2022-12-12T15:17:23.315Z,12.25
2022-12-12T15:19:55.520Z,11.48
2022-12-12T15:22:26.047Z,35.70
2022-12-12T15:24:55.452Z,30.73
2022-12-12T15:27:28.165Z,28.10
2022-12-12T15:29:56.617Z,20.35
2022-12-12T15:32:27.075Z,14.50
2022-12-12T15:35:06.277Z,14.27
2022-12-12T15:37:35.689Z,15.82
2022-12-12T15:40:26.556Z,13.65
2022-12-12T15:42:56.626Z,70.68
2022-12-12T15:45:31.349Z,45.03
2022-12-12T15:47:59.588Z,18.95
2022-12-12T15:50:33.065Z,33.80
2022-12-12T15:53:08.202Z,16.70
2022-12-12T15:55:37.003Z,17.85
2022-12-12T15:58:05.453Z,15.32
2022-12-12T16:00:37.396Z,15.25
2022-12-12T16:03:22.167Z,14.57
2022-12-12T16:06:16.251Z,33.55
2022-12-12T16:08:49.729Z,15.75
2022-12-12T16:11:34.456Z,15.25
2022-12-12T16:14:03.100Z,16.75
2022-12-12T16:16:45.267Z,15.02
2022-12-12T16:19:35.470Z,16.15
2022-12-12T16:22:07.790Z,15.77
2022-12-12T16:24:47.564Z,16.13
2022-12-12T16:27:15.636Z,14.43
2022-12-12T16:29:43.703Z,15.68
2022-12-12T16:32:14.972Z,17.65
2022-12-12T16:34:43.535Z,16.23
2022-12-12T16:37:16.878Z,15.60
2022-12-12T16:39:45.332Z,16.73
2022-12-12T16:42:15.076Z,15.43
2022-12-12T16:44:43.302Z,16.13
2022-12-12T16:47:17.008Z,15.40
2022-12-12T16:49:46.008Z,16.13
2022-12-12T16:52:16.692Z,18.02
2022-12-12T16:54:52.572Z,17.65
2022-12-12T16:57:21.775Z,18.52
2022-12-12T16:59:49.830Z,17.25
2022-12-12T17:02:20.678Z,18.85
2022-12-12T17:04:49.359Z,17.55
2022-12-12T17:07:19.074Z,17.48
2022-12-12T17:09:47.142Z,17.30
2022-12-12T17:12:16.023Z,17.27
2022-12-12T17:14:44.017Z,16.42
2022-12-12T17:17:12.172Z,16.90
2022-12-12T17:19:41.280Z,17.23
2022-12-12T17:22:09.297Z,16.05
2022-12-12T17:24:38.935Z,16.95
2022-12-12T17:27:06.938Z,18.95
2022-12-12T17:29:35.101Z,17.20
2022-12-12T17:32:03.378Z,19.13
2022-12-12T17:34:31.663Z,20.45
2022-12-12T17:36:59.621Z,21.38
2022-12-12T17:39:27.638Z,20.92
2022-12-12T17:41:57.088Z,18.40
2022-12-12T17:44:25.037Z,17.50
2022-12-12T17:46:53.932Z,17.27
2022-12-12T17:49:26.379Z,16.23
2022-12-12T17:51:54.692Z,15.60
2022-12-12T17:54:23.126Z,16.30
2022-12-12T17:56:51.193Z,17.95
2022-12-12T17:59:20.994Z,21.25
2022-12-12T18:01:54.091Z,22.92
2022-12-12T18:04:28.033Z,17.63
2022-12-12T18:06:56.793Z,17.73
2022-12-12T18:09:26.272Z,19.30
2022-12-12T18:11:54.390Z,17.65
2022-12-12T18:14:23.908Z,16.13
2022-12-12T18:16:53.541Z,17.25
2022-12-12T18:19:23.429Z,16.98
2022-12-12T18:22:00.917Z,17.45
2022-12-12T18:24:41.853Z,16.83
2022-12-12T18:27:12.071Z,22.85
2022-12-12T18:29:41.835Z,23.95
2022-12-12T18:32:11.965Z,23.90
2022-12-12T18:34:40.728Z,20.02
2022-12-12T18:37:09.123Z,18.50
2022-12-12T18:39:37.673Z,18.30
2022-12-12T18:42:05.893Z,16.88
2022-12-12T18:44:34.132Z,17.50
2022-12-12T18:47:03.526Z,16.50
2022-12-12T18:49:31.733Z,16.08
2022-12-12T18:52:00.170Z,19.20
2022-12-12T18:54:28.394Z,17.90
2022-12-12T18:56:56.735Z,17.55
2022-12-12T18:59:24.766Z,19.38
2022-12-12T19:01:52.939Z,19.52
2022-12-12T19:04:23.939Z,20.35
2022-12-12T19:06:53.015Z,19.08
2022-12-12T19:09:22.306Z,19.08
2022-12-12T19:11:51.738Z,18.27
2022-12-12T19:14:22.657Z,18.98
2022-12-12T19:16:50.737Z,17.70
2022-12-12T19:19:19.135Z,17.90
2022-12-12T19:21:48.518Z,18.63
2022-12-12T19:24:16.468Z,18.23
2022-12-12T19:26:45.268Z,20.23
2022-12-12T19:29:15.192Z,20.95
2022-12-12T19:31:58.675Z,18.38
2022-12-12T19:34:27.289Z,20.80
2022-12-12T19:36:56.713Z,22.15
2022-12-12T19:39:25.277Z,26.02
2022-12-12T19:41:53.467Z,30.23
2022-12-12T19:44:21.614Z,29.08
2022-12-12T19:46:56.367Z,28.20
2022-12-12T19:49:24.562Z,27.33
2022-12-12T19:51:52.589Z,30.08
2022-12-12T19:54:22.669Z,28.15
2022-12-12T19:57:06.117Z,29.23
2022-12-12T19:59:34.272Z,28.98
2022-12-12T20:02:02.957Z,28.58
2022-12-12T20:04:32.011Z,27.92
2022-12-12T20:07:00.389Z,28.50
2022-12-12T20:09:31.301Z,29.80
2022-12-12T20:12:01.095Z,27.92
2022-12-12T20:14:31.727Z,28.00
2022-12-12T20:17:02.797Z,29.02
2022-12-12T20:19:30.953Z,27.65
2022-12-12T20:22:01.186Z,27.88
2022-12-12T20:24:33.442Z,25.42
2022-12-12T20:27:03.683Z,299.77
2022-12-12T20:29:33.507Z,315.48
2022-12-12T20:32:02.065Z,320.83
2022-12-12T20:34:30.527Z,333.70
2022-12-12T20:36:58.748Z,324.77
2022-12-12T20:39:27.235Z,340.85
2022-12-12T20:41:57.737Z,325.42
2022-12-12T20:44:29.310Z,311.67
2022-12-12T20:46:58.901Z,280.20
2022-12-12T20:49:29.475Z,249.60
2022-12-12T20:51:58.845Z,220.10
2022-12-12T20:54:28.792Z,195.38
2022-12-12T20:56:59.098Z,178.07
2022-12-12T20:59:27.970Z,160.35
2022-12-12T21:01:56.251Z,144.45
2022-12-12T21:04:24.757Z,127.43
2022-12-12T21:06:53.222Z,118.63
2022-12-12T21:09:25.369Z,112.70
2022-12-12T21:11:55.943Z,104.75
2022-12-12T21:14:26.620Z,96.53
2022-12-12T21:16:55.387Z,90.63
2022-12-12T21:19:24.617Z,88.50
2022-12-12T21:21:55.247Z,83.68
2022-12-12T21:24:23.307Z,79.07
2022-12-12T21:26:51.829Z,75.38
2022-12-12T21:29:23.012Z,72.45
2022-12-12T21:31:56.204Z,67.88
2022-12-12T21:34:31.160Z,68.20
2022-12-12T21:37:08.586Z,69.40
2022-12-12T21:39:37.434Z,66.45
2022-12-12T21:42:09.178Z,65.50
2022-12-12T21:44:45.680Z,63.08
2022-12-12T21:47:16.907Z,58.78
2022-12-12T21:50:07.199Z,59.63
2022-12-12T21:52:36.029Z,58.20
2022-12-12T21:55:09.695Z,59.53
2022-12-12T21:57:48.733Z,60.45
2022-12-12T22:00:17.340Z,61.33
2022-12-12T22:02:49.992Z,60.35
2022-12-12T22:05:18.432Z,58.97
2022-12-12T22:07:46.479Z,59.78
2022-12-12T22:10:14.539Z,59.20
2022-12-12T22:12:42.618Z,52.55
2022-12-12T22:15:25.823Z,52.47
2022-12-12T22:17:55.693Z,54.08
2022-12-12T22:20:23.671Z,52.83
2022-12-12T22:22:51.940Z,52.22
2022-12-12T22:25:20.229Z,51.92
2022-12-12T22:27:48.338Z,47.65
2022-12-12T22:30:16.647Z,49.95
2022-12-12T22:32:45.563Z,48.42
2022-12-12T22:35:16.071Z,46.38
2022-12-12T22:37:44.413Z,48.60
2022-12-12T22:40:13.042Z,48.67
2022-12-12T22:42:41.132Z,46.00
2022-12-12T22:45:10.143Z,47.72
2022-12-12T22:47:39.395Z,48.63
2022-12-12T22:50:08.338Z,47.80
2022-12-12T22:52:37.883Z,49.17
2022-12-12T22:55:07.036Z,49.03
2022-12-12T22:57:35.017Z,46.50
2022-12-12T23:00:03.131Z,47.50
2022-12-12T23:02:31.202Z,45.58
2022-12-12T23:04:59.494Z,47.50
2022-12-12T23:07:27.638Z,44.90
2022-12-12T23:09:59.022Z,44.65
2022-12-12T23:12:27.232Z,46.50
2022-12-12T23:14:56.025Z,48.67
2022-12-12T23:17:24.561Z,46.72
2022-12-12T23:19:52.712Z,48.33
2022-12-12T23:22:20.868Z,45.28
2022-12-12T23:24:48.896Z,48.80
2022-12-12T23:27:18.410Z,47.85
2022-12-12T23:29:46.671Z,50.63
2022-12-12T23:32:14.800Z,50.95
2022-12-12T23:34:42.864Z,49.60
2022-12-12T23:37:11.109Z,50.97
2022-12-12T23:39:39.291Z,48.00
2022-12-12T23:42:07.604Z,47.70
2022-12-12T23:44:37.014Z,44.95
2022-12-12T23:47:05.039Z,46.20
2022-12-12T23:49:33.121Z,42.55
2022-12-12T23:52:02.624Z,39.63
2022-12-12T23:54:32.675Z,40.10
2022-12-12T23:57:01.051Z,38.45
2022-12-12T23:59:29.538Z,37.72
